Time;durP1;ratioP1;P1;durP2;ratioP2;P2;SDS_P1;SDS_P2;PMS_P1;PMS_P2;Temp;Humidity;BMP_temperature;BMP_pressure;BME280_temperature;BME280_humidity;BME280_pressure;Samples;Min_cycle;Max_cycle;Signal;HPM_P1;HPM_P2
2021/11/06 00:00:22;;;;;;;;;;;;;;;;;;;;;
2021/11/06 00:04:05;;;;;;;;;;;;;;;;;;;;;
2021/11/06 00:07:09;;;;;;;15.80;14.10;;;;;;;7.72;76.88;101235.35;118155;1178;24213;-76
2021/11/06 00:10:02;;;;;;;16.00;14.40;;;;;;;7.75;76.90;101236.33;118797;1173;21869;-76
2021/11/06 00:12:53;;;;;;;15.60;14.00;;;;;;;7.80;76.96;101235.98;118917;1171;23417;-77
2021/11/06 00:15:33;;;;;;;16.10;14.30;;;;;;;7.85;76.94;101242.02;118893;1171;21870;-76
2021/11/06 00:18:06;;;;;;;15.50;14.10;;;;;;;7.90;76.88;101244.96;118590;1174;21849;-76
2021/11/06 00:21:20;;;;;;;16.90;15.30;;;;;;;7.92;76.84;101246.16;118877;1174;21871;-76
2021/11/06 00:24:50;;;;;;;15.70;14.40;;;;;;;7.95;76.93;101248.48;118934;1164;21858;-76
2021/11/06 00:27:44;;;;;;;15.40;13.90;;;;;;;7.92;76.61;101252.95;118290;1178;21877;-76
2021/11/06 00:30:23;;;;;;;14.80;13.50;;;;;;;7.91;76.63;101256.58;118145;1178;21858;-76
2021/11/06 00:32:53;;;;;;;14.70;13.30;;;;;;;7.95;76.76;101260.50;118268;1178;21899;-76
2021/11/06 00:35:52;;;;;;;16.60;14.90;;;;;;;7.96;76.69;101257.52;118271;1174;21873;-76
2021/11/06 00:38:43;;;;;;;14.90;13.60;;;;;;;7.98;76.64;101258.05;118898;1174;22728;-76
2021/11/06 00:41:51;;;;;;;15.60;14.20;;;;;;;7.99;76.55;101257.10;118847;1175;21860;-77
2021/11/06 00:44:32;;;;;;;15.80;14.20;;;;;;;7.98;76.56;101257.41;118836;1173;21843;-76
2021/11/06 00:47:15;;;;;;;15.10;13.80;;;;;;;7.95;76.41;101255.52;118825;1174;22840;-77
2021/11/06 00:50:22;;;;;;;15.40;14.00;;;;;;;7.93;76.43;101255.67;118642;1174;21918;-76
2021/11/06 00:52:58;;;;;;;14.00;12.80;;;;;;;7.93;76.62;101256.78;118781;1174;21859;-77
2021/11/06 00:55:35;;;;;;;14.80;13.30;;;;;;;7.95;76.62;101260.79;118614;1171;21900;-76
2021/11/06 00:58:30;;;;;;;16.10;14.50;;;;;;;7.95;76.57;101262.60;118488;1177;21952;-76
2021/11/06 01:01:37;;;;;;;14.50;13.20;;;;;;;7.95;76.64;101266.44;118461;1174;23419;-76
2021/11/06 01:04:40;;;;;;;14.80;13.50;;;;;;;7.94;76.56;101263.73;118209;1177;22354;-76
2021/11/06 01:07:38;;;;;;;;;;;;;;;;;;;;;
2021/11/06 01:10:19;;;;;;;15.60;14.00;;;;;;;7.99;76.55;101263.48;118266;1179;22898;-76
2021/11/06 01:13:21;;;;;;;;;;;;;;;;;;;;;
2021/11/06 01:16:21;;;;;;;16.20;14.60;;;;;;;7.97;76.41;101271.02;118575;1176;23550;-76
2021/11/06 01:19:06;;;;;;;16.20;14.40;;;;;;;7.95;76.37;101271.12;118009;1180;21921;-76
2021/11/06 01:21:48;;;;;;;16.40;14.80;;;;;;;7.97;76.53;101270.60;118067;1177;21877;-77
2021/11/06 01:24:19;;;;;;;15.40;13.90;;;;;;;7.99;76.39;101271.20;118231;1177;21853;-76
2021/11/06 01:27:10;;;;;;;;;;;;;;;;;;;;;
2021/11/06 01:30:14;;;;;;;15.20;13.80;;;;;;;7.98;76.38;101276.12;118748;1175;21878;-77
2021/11/06 01:33:19;;;;;;;14.00;12.80;;;;;;;7.96;76.32;101274.55;118463;1177;22960;-77
2021/11/06 01:36:40;;;;;;;15.20;13.90;;;;;;;7.92;76.24;101278.75;118249;1177;21882;-77
2021/11/06 01:40:06;;;;;;;15.10;13.80;;;;;;;7.89;76.33;101277.08;118238;1180;24126;-78
2021/11/06 01:42:43;;;;;;;15.80;14.20;;;;;;;7.87;76.25;101275.90;117957;1177;23453;-76
2021/11/06 01:45:50;;;;;;;;;;;;;;;;;;;;;
2021/11/06 01:48:43;;;;;;;16.00;14.50;;;;;;;7.81;76.23;101271.67;118339;1177;21918;-77
2021/11/06 01:51:16;;;;;;;15.10;13.60;;;;;;;7.79;76.32;101271.09;118733;1171;23662;-78
2021/11/06 01:53:46;;;;;;;17.20;15.30;;;;;;;7.79;76.24;101275.29;118334;1174;21867;-78
2021/11/06 01:56:20;;;;;;;15.60;14.20;;;;;;;7.76;76.08;101278.52;118451;1177;21878;-77
2021/11/06 01:59:06;;;;;;;17.80;16.10;;;;;;;7.74;76.05;101280.09;118372;1177;22333;-77
2021/11/06 02:01:53;;;;;;;15.50;14.00;;;;;;;7.71;76.09;101282.59;118506;1176;23443;-77
2021/11/06 02:04:56;;;;;;;18.30;16.30;;;;;;;7.66;76.13;101282.30;118686;1176;21860;-77
2021/11/06 02:08:00;;;;;;;16.70;14.90;;;;;;;7.56;76.01;101285.42;118649;1176;23520;-77
2021/11/06 02:10:46;;;;;;;17.50;15.80;;;;;;;7.50;76.16;101285.55;118495;1177;23777;-77
2021/11/06 02:13:27;;;;;;;16.70;15.10;;;;;;;7.47;76.31;101287.73;118936;1173;21867;-76
2021/11/06 02:16:09;;;;;;;16.00;14.50;;;;;;;7.45;76.32;101286.14;118931;1172;21863;-76
2021/11/06 02:18:38;;;;;;;18.60;16.90;;;;;;;7.40;76.29;101288.29;119168;1172;21847;-76
2021/11/06 02:21:19;;;;;;;17.00;15.50;;;;;;;7.37;76.40;101288.42;119049;1172;21868;-76
2021/11/06 02:24:07;;;;;;;16.70;15.20;;;;;;;7.34;76.49;101288.60;118441;1174;21845;-76
2021/11/06 02:27:04;;;;;;;18.50;16.00;;;;;;;7.28;76.47;101288.36;118534;1175;23378;-76
2021/11/06 02:29:41;;;;;;;16.00;14.60;;;;;;;7.26;76.62;101292.73;118783;1174;23887;-76
2021/11/06 02:32:20;;;;;;;16.80;15.20;;;;;;;7.23;76.66;101294.39;118798;1174;21864;-76
2021/11/06 02:34:50;;;;;;;16.40;14.80;;;;;;;7.22;76.67;101297.62;118993;1174;24718;-77
2021/11/06 02:37:20;;;;;;;18.00;16.20;;;;;;;7.19;76.77;101301.19;118895;1174;22881;-76
2021/11/06 02:39:55;;;;;;;;;;;;;;;7.19;76.82;101295.48;118718;1176;21870;-77
2021/11/06 02:42:40;;;;;;;17.40;15.60;;;;;;;7.09;76.97;101298.70;118812;1174;24864;-76
2021/11/06 02:45:37;;;;;;;16.40;14.80;;;;;;;7.07;77.15;101296.05;118899;1174;21879;-77
2021/11/06 02:49:01;;;;;;;16.30;14.80;;;;;;;7.05;77.07;101291.98;118313;1178;22637;-76
2021/11/06 02:51:39;;;;;;;16.20;14.60;;;;;;;7.03;77.00;101290.75;118507;1177;21862;-76
2021/11/06 02:54:23;;;;;;;16.80;15.00;;;;;;;7.02;77.10;101286.30;118343;1175;21923;-76
2021/11/06 02:57:15;;;;;;;17.20;15.50;;;;;;;7.02;77.18;101290.27;118294;1178;21872;-76
2021/11/06 03:00:00;;;;;;;15.00;13.50;;;;;;;7.01;77.11;101289.66;118285;1178;22896;-76
2021/11/06 03:02:39;;;;;;;16.40;14.80;;;;;;;7.00;77.07;101284.32;118368;1178;22973;-76
2021/11/06 03:05:18;;;;;;;15.60;14.00;;;;;;;6.99;77.07;101279.81;118488;1174;21860;-76
2021/11/06 03:08:19;;;;;;;16.40;14.30;;;;;;;6.97;77.19;101282.66;118798;1174;23531;-76
2021/11/06 03:11:11;;;;;;;15.30;13.40;;;;;;;6.95;77.29;101286.48;118755;1174;21860;-76
2021/11/06 03:13:49;;;;;;;17.00;14.40;;;;;;;6.97;77.30;101291.20;118501;1175;22795;-76
2021/11/06 03:16:51;;;;;;;15.60;13.90;;;;;;;7.00;77.31;101295.58;118770;1171;21925;-76
2021/11/06 03:19:30;;;;;;;17.30;14.00;;;;;;;6.98;77.38;101298.48;118484;1177;23417;-76
2021/11/06 03:22:15;;;;;;;14.90;13.40;;;;;;;6.99;77.50;101302.77;118341;1177;21882;-76
2021/11/06 03:25:02;;;;;;;15.00;13.50;;;;;;;7.04;77.60;101303.65;118206;1179;22969;-76
2021/11/06 03:27:44;;;;;;;18.30;14.00;;;;;;;7.10;77.58;101307.87;118289;1178;21865;-76
2021/11/06 03:30:35;;;;;;;13.80;12.50;;;;;;;7.13;77.46;101301.86;118155;1179;21865;-76
2021/11/06 03:33:12;;;;;;;15.80;13.00;;;;;;;7.15;77.28;101305.59;118312;1178;21898;-76
2021/11/06 03:36:18;;;;;;;15.60;14.10;;;;;;;7.16;77.24;101306.02;118284;1178;21967;-76
2021/11/06 03:38:54;;;;;;;14.10;12.70;;;;;;;7.17;77.15;101305.25;118366;1178;21877;-76
2021/11/06 03:41:26;;;;;;;14.30;12.40;;;;;;;7.20;77.19;101302.77;118009;1181;23443;-76
2021/11/06 03:44:30;;;;;;;14.10;12.70;;;;;;;7.20;77.02;101301.16;118162;1179;21909;-76
2021/11/06 03:47:04;;;;;;;15.40;13.80;;;;;;;7.20;76.93;101306.05;118568;1176;22607;-76
2021/11/06 03:49:34;;;;;;;14.00;12.40;;;;;;;7.21;76.96;101311.20;118245;1179;21863;-76
2021/11/06 03:52:06;;;;;;;16.80;13.70;;;;;;;7.24;77.00;101309.75;118309;1174;21870;-75
2021/11/06 03:54:36;;;;;;;13.60;12.30;;;;;;;7.27;76.97;101310.75;118237;1179;24177;-75
2021/11/06 03:57:09;;;;;;;15.90;13.10;;;;;;;7.28;76.86;101312.07;117920;1179;21857;-76
2021/11/06 03:59:48;;;;;;;14.70;12.60;;;;;;;7.29;76.79;101313.73;118057;1179;21871;-76
2021/11/06 04:02:27;;;;;;;;;;;;;;;7.33;76.92;101311.34;118009;1180;21855;-76
2021/11/06 04:05:02;;;;;;;14.70;12.10;;;;;;;7.30;76.96;101305.96;117967;1180;23661;-76
2021/11/06 04:07:45;;;;;;;12.60;11.30;;;;;;;7.31;76.93;101308.49;117987;1179;21879;-79
2021/11/06 04:10:22;;;;;;;12.10;10.70;;;;;;;7.35;76.82;101309.98;118040;1175;22624;-76
2021/11/06 04:12:58;;;;;;;13.10;11.80;;;;;;;7.40;76.91;101309.75;117954;1180;23547;-76
2021/11/06 04:15:28;;;;;;;13.20;11.90;;;;;;;7.46;76.85;101313.97;117991;1178;21891;-76
2021/11/06 04:17:58;;;;;;;13.10;11.70;;;;;;;7.48;76.75;101318.49;118118;1176;21904;-76
2021/11/06 04:20:27;;;;;;;13.50;11.20;;;;;;;7.52;76.66;101324.35;118137;1179;22121;-76
2021/11/06 04:22:58;;;;;;;13.70;12.10;;;;;;;7.56;76.71;101320.86;117945;1180;22209;-76
2021/11/06 04:25:29;;;;;;;13.60;11.80;;;;;;;7.57;76.40;101317.60;117999;1180;22904;-76
2021/11/06 04:28:04;;;;;;;13.30;11.20;;;;;;;7.56;76.40;101315.75;118002;1179;21889;-76
2021/11/06 04:30:41;;;;;;;16.00;12.60;;;;;;;7.59;76.41;101317.66;118202;1178;21875;-76
2021/11/06 04:33:10;;;;;;;14.70;12.60;;;;;;;7.60;76.24;101324.24;117920;1180;23450;-76
2021/11/06 04:35:41;;;;;;;13.10;11.00;;;;;;;7.62;76.31;101323.52;118237;1176;21886;-76
2021/11/06 04:38:12;;;;;;;14.40;12.70;;;;;;;7.65;76.25;101328.21;118349;1176;21885;-76
2021/11/06 04:40:40;;;;;;;15.40;12.80;;;;;;;7.68;76.27;101333.20;118463;1177;22621;-76
2021/11/06 04:43:10;;;;;;;12.70;11.40;;;;;;;7.69;76.14;101333.27;118622;1174;21883;-76
2021/11/06 04:45:41;;;;;;;13.90;11.20;;;;;;;7.71;75.95;101333.33;118381;1175;23428;-76
2021/11/06 04:48:15;;;;;;;13.60;12.20;;;;;;;7.72;76.01;101331.30;118731;1175;22634;-76
2021/11/06 04:50:44;;;;;;;14.20;12.10;;;;;;;7.73;75.91;101332.77;118729;1174;21865;-76
2021/11/06 04:53:12;;;;;;;14.30;12.00;;;;;;;7.74;75.79;101332.89;118867;1163;21882;-76
2021/11/06 04:55:40;;;;;;;13.10;11.70;;;;;;;7.72;75.63;101333.25;118870;1174;21873;-76
2021/11/06 04:58:08;;;;;;;13.10;11.10;;;;;;;7.70;75.63;101329.84;118768;1172;22616;-76
2021/11/06 05:00:36;;;;;;;13.20;11.90;;;;;;;7.71;75.75;101327.86;118873;1173;23417;-76
2021/11/06 05:03:04;;;;;;;16.30;12.40;;;;;;;7.70;75.62;101328.63;118851;1174;21867;-76
2021/11/06 05:05:33;;;;;;;13.90;12.40;;;;;;;7.71;75.68;101331.19;119033;1167;21861;-76
2021/11/06 05:08:02;;;;;;;15.40;12.80;;;;;;;7.70;75.44;101327.60;118515;1174;21835;-76
2021/11/06 05:10:30;;;;;;;13.90;12.00;;;;;;;7.68;75.41;101326.91;119015;1174;21894;-76
2021/11/06 05:13:00;;;;;;;14.10;11.80;;;;;;;7.66;75.37;101324.63;118846;1174;23433;-76
2021/11/06 05:15:27;;;;;;;16.00;12.50;;;;;;;7.64;75.21;101326.90;118787;1174;21922;-76
2021/11/06 05:17:55;;;;;;;14.80;12.90;;;;;;;7.61;75.09;101331.01;118811;1174;21871;-76
2021/11/06 05:20:24;;;;;;;13.50;12.10;;;;;;;7.57;75.12;101335.70;118926;1174;22908;-75
2021/11/06 05:22:56;;;;;;;13.00;11.50;;;;;;;7.52;75.05;101340.46;118770;1174;22078;-76
2021/11/06 05:25:24;;;;;;;14.60;13.00;;;;;;;7.47;75.10;101345.44;118955;1170;21884;-75
2021/11/06 05:27:52;;;;;;;17.50;13.10;;;;;;;7.44;75.21;101347.04;119264;1170;21878;-75
2021/11/06 05:30:20;;;;;;;14.10;11.80;;;;;;;7.41;75.17;101349.39;119183;1170;23641;-75
2021/11/06 05:32:49;;;;;;;14.30;12.80;;;;;;;7.35;75.13;101351.07;119221;1170;24251;-75
2021/11/06 05:35:16;;;;;;;13.00;11.70;;;;;;;7.31;75.12;101350.05;119050;1172;22913;-76
2021/11/06 05:37:44;;;;;;;16.80;12.80;;;;;;;7.25;75.11;101346.86;119226;1168;21902;-75
2021/11/06 05:40:19;;;;;;;14.70;13.10;;;;;;;7.19;75.16;101351.30;119388;1170;21875;-76
2021/11/06 05:42:48;;;;;;;16.10;14.20;;;;;;;7.15;75.43;101353.56;119230;1170;23534;-75
2021/11/06 05:45:17;;;;;;;18.10;14.00;;;;;;;7.14;75.56;101355.77;119438;1170;21874;-76
2021/11/06 05:47:45;;;;;;;17.10;15.20;;;;;;;7.12;75.49;101356.45;119275;1170;21958;-76
2021/11/06 05:50:15;;;;;;;15.70;14.00;;;;;;;7.07;75.42;101359.98;119220;1170;21862;-76
2021/11/06 05:52:44;;;;;;;18.90;13.90;;;;;;;7.02;75.53;101359.29;119332;1169;23441;-80
2021/11/06 05:55:15;;;;;;;20.80;13.40;;;;;;;7.00;75.53;101356.65;119433;1170;22864;-76
2021/11/06 05:57:44;;;;;;;19.30;13.60;;;;;;;6.99;75.73;101360.95;118775;1174;22023;-75
2021/11/06 06:00:26;;;;;;;17.40;13.50;;;;;;;6.99;75.84;101362.38;118869;1171;21886;-75
2021/11/06 06:03:02;;;;;;;16.40;14.50;;;;;;;7.00;75.90;101365.09;118911;1174;22001;-76
2021/11/06 06:05:35;;;;;;;16.70;13.30;;;;;;;7.01;75.98;101368.83;118409;1177;21880;-76
2021/11/06 06:08:03;;;;;;;17.60;12.80;;;;;;;7.02;75.94;101368.23;118278;1177;22875;-76
2021/11/06 06:10:31;;;;;;;16.60;13.30;;;;;;;7.02;75.80;101370.88;118275;1177;22896;-75
2021/11/06 06:12:58;;;;;;;15.80;13.70;;;;;;;6.98;75.74;101370.28;118352;1177;22199;-76
2021/11/06 06:15:26;;;;;;;16.00;13.10;;;;;;;6.96;75.87;101372.53;118018;1177;21884;-76
2021/11/06 06:17:55;;;;;;;16.60;13.90;;;;;;;6.96;75.98;101376.61;118448;1177;23454;-75
2021/11/06 06:20:23;;;;;;;18.10;13.70;;;;;;;6.94;75.96;101377.09;118202;1175;21860;-76
2021/11/06 06:22:51;;;;;;;17.80;13.40;;;;;;;6.94;76.06;101382.54;118369;1174;21870;-77
2021/11/06 06:25:19;;;;;;;17.80;15.70;;;;;;;6.98;76.30;101383.27;118495;1175;21897;-76
2021/11/06 06:27:47;;;;;;;20.40;14.60;;;;;;;7.02;76.26;101385.55;118490;1175;23432;-76
2021/11/06 06:30:17;;;;;;;18.20;14.90;;;;;;;7.03;76.15;101386.52;118755;1175;22873;-76
2021/11/06 06:32:46;;;;;;;18.20;13.80;;;;;;;7.05;76.09;101383.44;118446;1174;24112;-76
2021/11/06 06:35:17;;;;;;;20.70;15.90;;;;;;;7.06;76.04;101384.59;119043;1172;23409;-76
2021/11/06 06:37:44;;;;;;;23.40;16.10;;;;;;;7.07;76.05;101386.10;118868;1172;21867;-77
2021/11/06 06:40:16;;;;;;;19.20;14.90;;;;;;;7.06;76.02;101383.71;119031;1172;21840;-76
2021/11/06 06:42:43;;;;;;;18.00;14.50;;;;;;;7.08;76.04;101384.77;119081;1170;21867;-76
2021/11/06 06:45:11;;;;;;;19.60;13.90;;;;;;;7.08;76.04;101383.38;118832;1173;23129;-76
2021/11/06 06:47:42;;;;;;;18.80;14.90;;;;;;;7.10;76.11;101386.20;119012;1172;23532;-76
2021/11/06 06:50:11;;;;;;;18.60;14.90;;;;;;;7.12;76.17;101383.27;119088;1170;21861;-76
2021/11/06 06:52:40;;;;;;;17.90;14.10;;;;;;;7.15;76.26;101384.09;119248;1167;21852;-76
2021/11/06 06:55:09;;;;;;;17.60;15.80;;;;;;;7.20;76.31;101378.04;119230;1171;21850;-78
2021/11/06 06:57:40;;;;;;;20.50;16.40;;;;;;;7.23;76.10;101383.27;119172;1170;22845;-79
2021/11/06 07:00:12;;;;;;;17.30;14.30;;;;;;;7.26;76.16;101386.38;118596;1174;22888;-77
2021/11/06 07:02:40;;;;;;;24.70;15.90;;;;;;;7.29;76.28;101392.73;119036;1166;22890;-76
2021/11/06 07:05:11;;;;;;;20.10;16.10;;;;;;;7.36;76.44;101399.37;118694;1172;21912;-76
2021/11/06 07:07:39;;;;;;;16.10;13.10;;;;;;;7.43;76.22;101403.89;118858;1174;22010;-77
2021/11/06 07:10:08;;;;;;;18.50;13.50;;;;;;;7.45;75.92;101406.00;118901;1174;21872;-77
2021/11/06 07:12:36;;;;;;;20.20;15.30;;;;;;;7.48;75.92;101409.45;119074;1174;21876;-78
2021/11/06 07:15:05;;;;;;;17.20;12.90;;;;;;;7.54;75.91;101413.73;118868;1174;23542;-76
2021/11/06 07:17:35;;;;;;;18.80;12.40;;;;;;;7.55;75.50;101416.27;118966;1172;22331;-76
2021/11/06 07:20:06;;;;;;;18.50;14.00;;;;;;;7.56;75.53;101417.84;118853;1171;23595;-76
2021/11/06 07:22:35;;;;;;;15.80;13.20;;;;;;;7.60;75.58;101419.08;118853;1171;22857;-76
2021/11/06 07:25:05;;;;;;;24.40;18.10;;;;;;;7.66;75.64;101419.13;119050;1170;22137;-76
2021/11/06 07:27:34;;;;;;;17.50;15.70;;;;;;;7.75;75.69;101416.80;119198;1170;21861;-76
2021/11/06 07:30:06;;;;;;;21.50;15.00;;;;;;;7.82;75.67;101421.12;119216;1170;21863;-76
2021/11/06 07:32:34;;;;;;;16.90;14.30;;;;;;;7.88;75.43;101420.88;119172;1170;23406;-76
2021/11/06 07:35:05;;;;;;;17.20;15.20;;;;;;;7.91;75.26;101420.93;119407;1170;21863;-76
2021/11/06 07:37:36;;;;;;;19.90;15.10;;;;;;;8.01;75.47;101429.97;119082;1173;21863;-76
2021/11/06 07:40:08;;;;;;;15.80;13.00;;;;;;;8.10;75.27;101426.80;118891;1174;21855;-76
2021/11/06 07:42:37;;;;;;;16.60;13.70;;;;;;;8.19;75.34;101426.38;118884;1173;21881;-75
2021/11/06 07:45:07;;;;;;;43.30;14.30;;;;;;;8.31;75.18;101424.54;119020;1173;22992;-75
2021/11/06 07:47:36;;;;;;;16.00;12.10;;;;;;;8.44;75.17;101428.38;118884;1173;21871;-76
2021/11/06 07:50:05;;;;;;;17.10;13.10;;;;;;;8.59;75.02;101426.80;119010;1173;23573;-75
2021/11/06 07:52:33;;;;;;;15.00;10.90;;;;;;;8.72;74.84;101429.69;118465;1176;21953;-75
2021/11/06 07:55:03;;;;;;;19.40;12.70;;;;;;;8.88;74.60;101434.00;118448;1173;21884;-76
2021/11/06 07:57:32;;;;;;;19.10;11.40;;;;;;;9.03;74.28;101431.66;118761;1175;22882;-75
2021/11/06 08:00:10;;;;;;;16.70;11.60;;;;;;;9.18;74.07;101435.79;118716;1176;22832;-77
2021/11/06 08:02:40;;;;;;;39.10;26.60;;;;;;;9.30;73.46;101439.86;118879;1167;22889;-76
2021/11/06 08:05:11;;;;;;;23.20;20.80;;;;;;;9.42;73.22;101442.67;118881;1174;21904;-76
2021/11/06 08:07:41;;;;;;;27.40;19.80;;;;;;;9.57;73.01;101446.36;118874;1174;21902;-75
2021/11/06 08:10:10;;;;;;;15.30;13.20;;;;;;;9.68;72.42;101447.98;118756;1170;21853;-75
2021/11/06 08:12:39;;;;;;;17.60;12.40;;;;;;;9.75;71.75;101449.81;118855;1173;23598;-75
2021/11/06 08:15:15;;;;;;;18.30;14.50;;;;;;;9.82;71.41;101447.44;118783;1171;21946;-75
2021/11/06 08:17:50;;;;;;;15.60;11.60;;;;;;;9.87;71.23;101448.02;118296;1175;21876;-76
2021/11/06 08:20:23;;;;;;;16.10;11.50;;;;;;;9.92;70.82;101448.19;118256;1177;23706;-75
2021/11/06 08:22:56;;;;;;;16.90;11.20;;;;;;;9.94;70.46;101451.84;118225;1179;21867;-75
2021/11/06 08:25:25;;;;;;;15.50;12.70;;;;;;;9.95;70.08;101454.56;117806;1181;23547;-74
2021/11/06 08:27:58;;;;;;;13.40;10.20;;;;;;;9.95;69.75;101453.88;117858;1181;22723;-74
2021/11/06 08:30:34;;;;;;;12.00;10.10;;;;;;;9.92;69.42;101453.42;117892;1178;21864;-74
2021/11/06 08:33:34;;;;;;;16.90;9.60;;;;;;;9.87;69.38;101459.14;117712;1173;22948;-75
2021/11/06 08:36:33;;;;;;;12.20;8.90;;;;;;;9.84;69.23;101460.84;117751;1181;21867;-76
2021/11/06 08:39:18;;;;;;;15.20;10.60;;;;;;;9.79;69.20;101461.75;118085;1179;22917;-75
2021/11/06 08:41:52;;;;;;;14.10;10.40;;;;;;;9.79;69.24;101464.43;117851;1177;21892;-75
2021/11/06 08:44:29;;;;;;;13.90;10.00;;;;;;;9.82;69.35;101460.98;117851;1180;21901;-76
2021/11/06 08:46:58;;;;;;;12.40;9.60;;;;;;;9.84;69.13;101462.41;117833;1182;23464;-76
2021/11/06 08:49:30;;;;;;;13.80;10.70;;;;;;;9.83;69.04;101464.57;117892;1179;22937;-75
2021/11/06 08:51:58;;;;;;;15.60;10.70;;;;;;;9.83;69.00;101468.09;118627;1175;21857;-75
2021/11/06 08:54:28;;;;;;;15.70;10.30;;;;;;;9.84;69.05;101468.58;118440;1175;22860;-74
2021/11/06 08:57:07;;;;;;;;;;;;;;;;;;;;;
2021/11/06 08:59:38;;;;;;;14.10;10.90;;;;;;;9.97;69.59;101468.34;118944;1171;22451;-75
2021/11/06 09:02:19;;;;;;;12.50;10.10;;;;;;;10.06;69.41;101469.23;119172;1170;23667;-74
2021/11/06 09:05:24;;;;;;;13.10;11.10;;;;;;;10.13;69.19;101473.18;119223;1170;21855;-75
2021/11/06 09:08:04;;;;;;;13.20;10.70;;;;;;;10.20;68.93;101474.52;119220;1170;21864;-75
2021/11/06 09:10:38;;;;;;;17.70;13.40;;;;;;;10.26;68.68;101472.55;119198;1170;21893;-75
2021/11/06 09:13:10;;;;;;;41.80;29.00;;;;;;;10.35;68.53;101473.89;119201;1170;23559;-76
2021/11/06 09:15:44;;;;;;;30.90;20.30;;;;;;;10.43;68.38;101468.41;119270;1160;21886;-76
2021/11/06 09:18:18;;;;;;;19.20;14.70;;;;;;;10.50;68.08;101465.82;119139;1170;21850;-77
2021/11/06 09:20:50;;;;;;;33.10;21.10;;;;;;;10.58;68.21;101466.34;119231;1164;21862;-76
2021/11/06 09:23:25;;;;;;;33.90;21.20;;;;;;;10.68;67.87;101469.48;118889;1172;23597;-76
2021/11/06 09:26:01;;;;;;;21.60;12.80;;;;;;;10.76;67.63;101469.08;118904;1171;23564;-77
2021/11/06 09:28:37;;;;;;;17.90;11.80;;;;;;;10.84;67.41;101465.03;119117;1172;21888;-77
2021/11/06 09:31:05;;;;;;;13.80;11.50;;;;;;;10.93;67.23;101466.63;119001;1170;23441;-76
2021/11/06 09:33:41;;;;;;;15.10;10.70;;;;;;;11.05;67.00;101464.84;119081;1172;21906;-76
2021/11/06 09:36:15;;;;;;;17.50;11.30;;;;;;;11.13;66.68;101464.05;118898;1172;23527;-76
2021/11/06 09:38:44;;;;;;;17.90;10.60;;;;;;;11.23;66.59;101466.27;118836;1171;23679;-76
2021/11/06 09:41:12;;;;;;;12.40;10.30;;;;;;;11.38;66.68;101470.99;118817;1174;22768;-74
2021/11/06 09:43:41;;;;;;;13.00;8.60;;;;;;;11.53;66.20;101466.80;118805;1173;24440;-74
2021/11/06 09:46:09;;;;;;;12.00;9.60;;;;;;;11.65;65.58;101467.55;118941;1173;23444;-76
2021/11/06 09:48:45;;;;;;;10.40;8.80;;;;;;;11.72;65.21;101469.06;119236;1171;21875;-76
2021/11/06 09:51:22;;;;;;;11.30;9.10;;;;;;;11.82;65.16;101473.89;119347;1170;21895;-76
2021/11/06 09:54:10;;;;;;;13.50;8.80;;;;;;;11.98;64.97;101472.35;119190;1167;21849;-76
2021/11/06 09:56:41;;;;;;;12.20;8.90;;;;;;;12.13;64.60;101465.59;118822;1172;21965;-76
2021/11/06 09:59:27;;;;;;;14.10;9.00;;;;;;;12.31;64.03;101467.54;118897;1174;23526;-75
2021/11/06 10:02:01;;;;;;;10.50;8.10;;;;;;;12.43;63.44;101463.11;118394;1177;21898;-76
2021/11/06 10:04:31;;;;;;;8.80;7.60;;;;;;;12.57;63.14;101460.50;118436;1177;21851;-76
2021/11/06 10:07:20;;;;;;;10.30;6.80;;;;;;;12.74;62.84;101460.09;118661;1177;21922;-76
2021/11/06 10:10:15;;;;;;;16.70;12.30;;;;;;;12.93;62.47;101457.11;118559;1177;21880;-75
2021/11/06 10:12:57;;;;;;;21.30;15.40;;;;;;;13.12;61.94;101457.59;118445;1177;22906;-74
2021/11/06 10:15:26;;;;;;;14.00;9.80;;;;;;;13.29;61.29;101456.39;118628;1175;21926;-75
2021/11/06 10:17:54;;;;;;;11.20;8.40;;;;;;;13.46;60.70;101456.07;118644;1175;21908;-76
2021/11/06 10:20:32;;;;;;;9.70;7.70;;;;;;;13.64;60.50;101458.75;118974;1171;21862;-76
2021/11/06 10:23:08;;;;;;;13.60;9.60;;;;;;;13.83;59.85;101458.15;119097;1170;21855;-75
2021/11/06 10:25:41;;;;;;;15.90;14.10;;;;;;;14.06;59.62;101455.96;119123;1170;21848;-76
2021/11/06 10:28:13;;;;;;;20.20;16.60;;;;;;;14.25;59.17;101452.35;119150;1172;23520;-75
2021/11/06 10:30:45;;;;;;;14.80;11.70;;;;;;;14.50;58.93;101455.46;118862;1174;22027;-74
2021/11/06 10:33:49;;;;;;;12.60;8.90;;;;;;;14.78;58.24;101452.66;118322;1177;22075;-79
2021/11/06 10:36:27;;;;;;;13.30;7.80;;;;;;;15.08;57.83;101453.73;118111;1177;21921;-75
2021/11/06 10:39:11;;;;;;;13.30;9.10;;;;;;;15.39;57.96;101454.33;118151;1179;21900;-75
2021/11/06 10:41:43;;;;;;;16.60;9.30;;;;;;;15.82;57.56;101455.20;118029;1180;22026;-75
2021/11/06 10:44:15;;;;;;;11.90;9.00;;;;;;;16.10;54.86;101453.26;117888;1174;23677;-76
2021/11/06 10:46:57;;;;;;;11.70;8.20;;;;;;;16.25;53.68;101452.05;117227;1180;23622;-75
2021/11/06 10:49:44;;;;;;;12.20;9.30;;;;;;;16.42;52.86;101448.23;117755;1182;24136;-76
2021/11/06 10:52:20;;;;;;;9.80;7.40;;;;;;;16.50;51.81;101439.28;118171;1179;21926;-76
2021/11/06 10:55:09;;;;;;;13.20;8.10;;;;;;;16.49;51.22;101444.63;118268;1176;23492;-76
2021/11/06 10:57:40;;;;;;;10.90;8.10;;;;;;;16.41;50.61;101440.92;118472;1177;22911;-76
2021/11/06 11:00:19;;;;;;;12.20;8.70;;;;;;;16.22;50.11;101435.61;118407;1177;22172;-77
2021/11/06 11:02:48;;;;;;;13.20;9.30;;;;;;;15.90;49.60;101435.23;118634;1175;21871;-76
2021/11/06 11:05:31;;;;;;;11.40;7.90;;;;;;;15.59;49.89;101433.95;118842;1175;21905;-76
2021/11/06 11:08:12;;;;;;;12.40;7.90;;;;;;;15.36;50.20;101434.75;118874;1170;21866;-77
2021/11/06 11:10:43;;;;;;;10.80;6.30;;;;;;;15.04;50.12;101431.13;118801;1172;22822;-74
2021/11/06 11:13:22;;;;;;;12.10;7.10;;;;;;;14.65;50.26;101428.46;119217;1170;21873;-76
2021/11/06 11:16:11;;;;;;;10.80;5.60;;;;;;;14.22;50.65;101424.67;119209;1170;23406;-75
2021/11/06 11:18:55;;;;;;;14.40;7.50;;;;;;;13.77;51.35;101423.41;119132;1170;22637;-79
2021/11/06 11:21:42;;;;;;;12.10;7.60;;;;;;;13.45;52.63;101422.72;119154;1170;22875;-76
2021/11/06 11:24:18;;;;;;;9.80;6.10;;;;;;;13.27;53.74;101423.70;119259;1170;21874;-78
2021/11/06 11:26:56;;;;;;;15.10;8.30;;;;;;;13.16;54.53;101420.05;119234;1167;21864;-78
2021/11/06 11:29:32;;;;;;;12.60;6.30;;;;;;;13.09;54.89;101416.86;119320;1170;22876;-77
2021/11/06 11:32:06;;;;;;;11.10;5.30;;;;;;;13.00;55.09;101415.73;119319;1171;21872;-77
2021/11/06 11:34:40;;;;;;;10.80;5.30;;;;;;;12.88;55.09;101420.78;119272;1170;21876;-77
2021/11/06 11:37:22;;;;;;;9.10;4.70;;;;;;;12.75;55.24;101425.64;119177;1173;21849;-77
2021/11/06 11:39:53;;;;;;;11.00;6.00;;;;;;;12.65;55.48;101424.37;118536;1176;24715;-79
2021/11/06 11:42:58;;;;;;;8.90;5.50;;;;;;;12.57;55.81;101423.08;118522;1176;21919;-78
2021/11/06 11:46:18;;;;;;;;;;;;;;;;;;;;;
2021/11/06 11:49:02;;;;;;;10.20;6.30;;;;;;;12.45;56.83;101413.27;117857;1181;22635;-79
2021/11/06 11:52:07;;;;;;;;;;;;;;;;;;;;;
2021/11/06 11:55:45;;;;;;;8.40;5.20;;;;;;;12.48;57.58;101409.51;117221;1185;22976;-78
2021/11/06 11:58:44;;;;;;;8.80;4.90;;;;;;;12.49;57.70;101406.88;117435;1186;22647;-75
2021/11/06 12:01:23;;;;;;;6.90;3.60;;;;;;;12.54;57.80;101405.02;117532;1185;21880;-75
2021/11/06 12:04:18;;;;;;;5.30;3.10;;;;;;;12.56;57.36;101405.83;117568;1185;21905;-76
2021/11/06 12:06:46;;;;;;;7.30;4.20;;;;;;;12.57;57.11;101401.73;117629;1183;21992;-75
2021/11/06 12:09:14;;;;;;;7.40;4.10;;;;;;;12.54;56.70;101400.45;117677;1180;23000;-75
2021/11/06 12:11:50;;;;;;;6.80;3.40;;;;;;;12.50;56.68;101398.70;118071;1181;23448;-76
2021/11/06 12:14:34;;;;;;;7.70;3.90;;;;;;;12.45;56.68;101400.39;117977;1181;22089;-74